Latest Coastal Weather Observations for Wilsons Promontory

IDT60701

Issued at 3:42 am EST Friday 20 April 2018 (issued every 10 minutes, with the page automatically refreshed every 10 minutes)

About coastal observations | Map of coastal stations | Coastal observations for TAS | Marine services | Other Formats
Station Details ID: 085096 Name: WILSONS PROMONTORY LIGHTHOUSE Lat: -39.13 Lon: 146.42 Height: 95.0 m
Data from the previous 72 hours. | See also: Recent months at Wilsons Promontory
Date/Time
EST
Temp
°C
Wind Pressure Rain since
9am
mm
Weather Cloud Vis
km
Sea
Height
m
Swell
Dir  Spd
kts
Gust
kts
hPa Trend Height
m
Period
s
Dir
20/03:30am 14.0 NNE 8 10 1020.4 - 0.0 - - - - - - -
20/03:00am 14.0 NNE 8 9 1020.4 - 0.0 - - - - - - -
20/02:30am 14.1 NNE 7 9 1020.7 - 0.0 - - - - - - -
20/02:00am 14.1 NNE 7 9 1020.9 - 0.0 - - - - - - -
20/01:00am 14.1 NNE 7 9 1021.1 - 0.0 - - - - - - -
20/12:30am 14.0 N 8 10 1021.0 - 0.0 - - - - - - -
20/12:00am 14.1 N 7 9 1020.8 - 0.0 - - - - - - -
 
Date/Time
EST
Temp
°C
Wind Pressure Rain since
9am
mm
Weather Cloud Vis
km
Sea
Height
m
Swell
Dir  Spd
kts
Gust
kts
hPa Trend Height
m
Period
s
Dir
19/11:30pm 14.2 NNE 6 8 1020.8 - 0.0 - - - - - - -
19/11:00pm 14.3 NNE 6 9 1020.7 - 0.0 - - - - - - -
19/10:30pm 14.4 NE 6 8 1020.8 - 0.0 - - - - - - -
19/10:00pm 14.3 NE 6 8 1020.8 - 0.0 - - - - - - -
19/09:30pm 14.4 NE 6 7 1020.6 - 0.0 - - - - - - -
19/09:00pm 14.5 ESE 5 7 1020.3 - 0.0 - - - - - - -
19/08:30pm 14.7 S 6 8 1020.4 - 0.0 - - - - - - -
19/08:00pm 15.0 S 8 12 1020.3 - 0.0 - - - - - - -
19/07:30pm 15.0 S 10 13 1020.3 - 0.0 - - - - - - -
19/07:00pm 15.1 SSW 10 14 1019.9 - 0.0 - - - - - - -
19/06:30pm 15.2 S 10 14 1019.4 - 0.0 - - - - - - -
19/06:00pm 15.3 SSW 8 14 1018.9 - 0.0 - - - - - - -
19/05:30pm 15.6 W 5 8 1018.8 - 0.0 - - - - - - -
19/05:00pm 15.7 SSW 6 12 1018.7 - 0.0 - - - - - - -
19/04:30pm 16.1 WSW 13 15 1018.6 - 0.0 - - - - - - -
19/04:00pm 16.2 WSW 15 16 1018.4 - 0.0 - - - - - - -
19/03:30pm 16.6 W 12 15 1018.3 - 0.0 - - - - - - -
19/03:00pm 16.7 WSW 15 18 1017.9 - 0.0 - - - - - - -
19/02:30pm 16.6 WSW 16 19 1017.8 - 0.0 - - - - - - -
19/02:00pm 16.6 WSW 13 17 1017.6 - 0.0 - - - - - - -
19/01:30pm 16.5 WSW 15 20 1017.6 - 0.0 - - - - - - -
19/01:00pm 16.7 W 10 15 1017.6 - 0.0 - - - - - - -
19/12:30pm 16.7 WSW 16 19 1017.8 - 0.0 - - - - - - -
19/12:00pm 17.1 SW 10 13 1018.1 - 0.0 - - - - - - -
19/11:30am 17.1 SW 8 10 1018.4 - 0.0 - - - - - - -
19/11:00am 16.7 SW 10 12 1018.6 - 0.0 - - - - - - -
19/10:30am 16.5 SW 9 11 1018.8 - 0.0 - - - - - - -
19/10:00am 16.3 SW 12 13 1018.9 - 0.0 - - - - - - -
19/09:30am 16.3 SW 10 11 1018.8 - 0.0 - - - - - - -
19/09:00am 16.4 W 7 10 1018.7 - 0.0 - - - - - - -
19/08:30am 16.5 ESE 3 5 1018.8 - 0.0 - - - - - - -
19/08:00am 15.4 W 5 7 1018.4 - 0.0 - - - - - - -
19/07:30am 15.2 W 8 10 1018.0 - 0.0 - - - - - - -
19/07:00am 15.4 WSW 9 11 1017.8 - 0.0 - - - - - - -
19/06:30am 15.1 WSW 9 10 1017.7 - 0.0 - - - - - - -
19/06:00am 14.9 WSW 9 10 1017.5 - 0.0 - - - - - - -
19/05:30am 14.7 WSW 6 7 1017.5 - 0.0 - - - - - - -
19/05:00am 15.0 WSW 1 3 1017.4 - 0.0 - - - - - - -
19/04:30am 14.8 CALM 0 3 1017.3 - 0.0 - - - - - - -
19/04:00am 15.0 W 7 8 1017.5 - 0.0 - - - - - - -
19/03:30am 15.7 N 3 7 1017.4 - 0.0 - - - - - - -
19/03:00am 15.7 NNE 9 14 1017.4 - 0.0 - - - - - - -
19/02:30am 15.5 NNE 12 16 1017.7 - 0.0 - - - - - - -
19/02:00am 15.4 N 11 15 1018.1 - 0.0 - - - - - - -
19/01:30am 14.8 N 10 16 1018.3 - 0.0 - - - - - - -
19/01:00am 14.6 N 14 18 1018.4 - 0.0 - - - - - - -
19/12:30am 14.6 N 14 20 1018.6 - 0.0 - - - - - - -
19/12:00am 14.4 NNE 16 22 1018.7 - 0.0 - - - - - - -
 
Date/Time
EST
Temp
°C
Wind Pressure Rain since
9am
mm
Weather Cloud Vis
km
Sea
Height
m
Swell
Dir  Spd
kts
Gust
kts
hPa Trend Height
m
Period
s
Dir
18/11:30pm 14.4 NNE 16 24 1019.0 - 0.0 - - - - - - -
18/11:00pm 14.3 NNE 16 25 1019.1 - 0.0 - - - - - - -
18/10:30pm 14.1 N 17 22 1019.4 - 0.0 - - - - - - -
18/10:00pm 14.0 N 15 21 1019.7 - 0.0 - - - - - - -
18/09:30pm 13.8 N 17 22 1019.8 - 0.0 - - - - - - -
18/09:00pm 13.9 N 18 23 1019.8 - 0.0 - - - - - - -
18/08:30pm 13.8 N 15 20 1019.9 - 0.0 - - - - - - -
18/08:00pm 13.8 N 14 20 1020.2 - 0.0 - - - - - - -
18/07:30pm 13.7 NNE 13 19 1020.3 - 0.0 - - - - - - -
18/07:00pm 13.6 N 12 16 1020.4 - 0.0 - - - - - - -
18/06:30pm 13.6 NNE 11 15 1020.4 - 0.0 - - - - - - -
18/06:00pm 13.7 NNE 11 14 1020.1 - 0.0 - - - - - - -
18/05:30pm 13.9 NNE 10 14 1020.2 - 0.0 - - - - - - -
18/05:00pm 14.2 NNE 9 14 1020.1 - 0.0 - - - - - - -
18/04:30pm 14.4 NNE 11 15 1020.3 - 0.0 - - - - - - -
18/04:00pm 14.7 NE 11 15 1020.4 - 0.0 - - - - - - -
18/03:30pm 14.8 NNE 12 15 1020.5 - 0.0 - - - - - - -
18/03:00pm 15.2 NE 12 15 1020.7 - 0.0 - - - - - - -
18/02:30pm 14.7 NE 11 14 1020.8 - 0.0 - - - - - - -
18/02:00pm 14.8 NE 12 15 1020.9 - 0.0 - - - - - - -
18/01:30pm 15.2 NNE 13 16 1021.5 - 0.0 - - - - - - -
18/01:00pm 15.2 NE 12 16 1021.9 - 0.0 - - - - - - -
18/12:30pm 15.8 NNE 12 15 1022.2 - 0.0 - - - - - - -
18/12:00pm 15.2 NE 12 15 1022.7 - 0.0 - - - - - - -
18/11:30am 15.7 NE 10 13 1023.3 - 0.0 - - - - - - -
18/11:00am 15.5 NE 10 13 1023.4 - 0.0 - - - - - - -
18/10:30am 15.9 NNE 9 13 1023.8 - 0.0 - - - - - - -
18/10:00am 14.5 NE 6 9 1023.8 - 0.0 - - - - - - -
18/09:30am 14.2 NE 5 7 1024.0 - 0.0 - - - - - - -
18/09:00am 13.9 NE 2 5 1023.9 - 0.0 - - - - - - -
18/08:30am 13.8 NE 3 5 1024.1 - 0.0 - - - - - - -
18/08:00am 13.1 CALM 0 0 1024.1 - 0.0 - - - - - - -
18/07:30am 12.3 CALM 0 0 1024.1 - 0.0 - - - - - - -
18/07:00am 11.7 CALM 0 0 1023.8 - 0.0 - - - - - - -
18/06:30am 11.8 CALM 0 0 1023.7 - 0.0 - - - - - - -
18/06:00am 11.8 CALM 0 0 1023.6 - 0.0 - - - - - - -
18/05:30am 11.8 WNW 2 4 1023.7 - 0.0 - - - - - - -
18/05:00am 12.2 WSW 5 8 1023.7 - 0.0 - - - - - - -
18/04:30am 12.5 SW 3 5 1023.5 - 0.0 - - - - - - -
18/04:00am 12.7 SW 3 7 1023.6 - 0.0 - - - - - - -
18/03:30am 12.7 W 4 6 1023.8 - 0.0 - - - - - - -
18/03:00am 12.8 W 4 6 1023.9 - 0.0 - - - - - - -
18/02:30am 12.8 W 5 8 1024.3 - 0.0 - - - - - - -
18/02:00am 13.0 WSW 6 9 1024.5 - 0.0 - - - - - - -
18/01:30am 13.0 SW 7 11 1024.6 - 0.0 - - - - - - -
18/01:00am 13.1 WSW 10 14 1024.8 - 0.0 - - - - - - -
18/12:30am 13.2 WSW 8 13 1024.8 - 0.0 - - - - - - -
18/12:00am 13.3 WSW 12 15 1025.0 - 0.0 - - - - - - -
 
Date/Time
EST
Temp
°C
Wind Pressure Rain since
9am
mm
Weather Cloud Vis
km
Sea
Height
m
Swell
Dir  Spd
kts
Gust
kts
hPa Trend Height
m
Period
s
Dir
17/11:30pm 13.3 SW 9 14 1025.2 - 0.0 - - - - - - -
17/11:00pm 13.2 WSW 10 14 1025.4 - 0.0 - - - - - - -
17/10:30pm 13.3 W 8 17 1025.4 - 0.0 - - - - - - -
17/10:00pm 13.4 WSW 13 20 1025.4 - 0.0 - - - - - - -
17/09:30pm 13.3 WSW 18 23 1025.2 - 0.0 - - - - - - -
17/09:00pm 13.4 SW 14 21 1025.1 - 0.0 - - - - - - -
17/08:30pm 13.4 W 15 20 1025.0 - 0.0 - - - - - - -
17/08:10pm 13.5 WSW 19 29 1024.7 - 0.0 - - - - - - -
17/08:00pm 13.5 WSW 18 24 1024.8 - 0.0 - - - - - - -
17/07:30pm 13.6 WSW 18 23 1024.6 - 0.0 - - - - - - -
17/07:23pm 13.5 WSW 19 29 1024.7 - 0.0 - - - - - - -
17/07:00pm 13.7 WSW 23 31 1024.5 - 0.0 - - - - - - -
17/06:47pm 13.6 WSW 20 30 1024.3 - 0.0 - - - - - - -
17/06:30pm 13.7 WSW 21 27 1024.3 - 0.0 - - - - - - -
17/06:19pm 13.7 WSW 19 29 1024.1 - 0.0 - - - - - - -
17/06:00pm 13.6 WSW 18 25 1023.9 - 0.0 - - - - - - -
17/05:30pm 13.6 W 19 31 1023.9 - 0.0 - - - - - - -
17/05:28pm 13.7 WSW 21 31 1023.9 - 0.0 - - - - - - -
17/05:00pm 13.7 WSW 24 30 1023.3 - 0.0 - - - - - - -
17/04:38pm 13.7 W 19 29 1023.3 - 0.0 - - - - - - -
17/04:30pm 13.9 W 19 24 1023.6 - 0.0 - - - - - - -
17/04:00pm 13.9 W 18 23 1023.3 - 0.0 - - - - - - -
17/03:37pm 13.8 WSW 20 30 1023.0 - 0.0 - - - - - - -
17/03:30pm 14.0 WSW 17 25 1023.3 - 0.0 - - - - - - -
17/03:00pm 14.7 WSW 20 26 1023.1 - 0.0 - - - - - - -
17/02:30pm 13.8 WSW 21 26 1023.0 - 0.0 - - - - - - -
17/02:00pm 13.8 WSW 25 29 1023.0 - 0.0 - - - - - - -
17/01:30pm 13.8 SW 22 29 1022.8 - 0.0 - - - - - - -
17/01:12pm 14.2 WSW 21 33 1022.7 - 0.0 - - - - - - -
17/01:00pm 14.2 WSW 28 33 1023.1 - 0.0 - - - - - - -
17/12:30pm 13.9 SW 25 34 1022.8 - 0.0 - - - - - - -
17/12:02pm 13.9 SW 16 30 1023.1 - 0.0 - - - - - - -
17/12:00pm 14.0 SW 15 30 1023.0 - 0.0 - - - - - - -
17/11:58am 14.1 S 12 30 1023.2 - 0.0 - - - - - - -
17/11:30am 13.9 SW 26 32 1023.1 - 0.0 - - - - - - -
17/11:00am 13.9 WSW 26 34 1022.8 - 0.0 - - - - - - -
17/10:30am 14.2 WSW 31 34 1022.6 - 0.0 - - - - - - -
17/10:00am 14.1 WSW 24 35 1022.4 - 0.0 - - - - - - -
17/09:59am 14.2 WSW 23 33 1022.5 - 0.0 - - - - - - -
17/09:57am 14.3 W 22 33 1022.7 - 0.0 - - - - - - -
17/09:30am 13.7 SW 33 41 1022.3 - 0.0 - - - - - - -
17/09:19am 13.6 SW 34 37 1021.9 - 0.0 - - - - - - -
17/09:09am 13.5 WSW 23 35 1022.4 - 0.0 - - - - - - -
17/09:08am 13.5 W 20 35 1022.5 - 0.0 - - - - - - -
17/09:00am 13.4 WSW 32 37 1022.1 - 0.0 - - - - - - -
17/08:30am 13.6 WSW 31 38 1021.7 - 0.0 - - - - - - -
17/08:00am 13.6 WSW 28 37 1021.2 - 0.0 - - - - - - -
17/07:30am 13.4 WSW 27 38 1021.1 - 0.0 - - - - - - -
17/07:02am 13.0 WSW 27 37 1021.0 - 0.0 - - - - - - -
17/07:00am 13.0 WSW 28 37 1021.0 - 0.0 - - - - - - -
17/06:51am 13.0 WSW 29 39 1021.1 - 0.0 - - - - - - -
17/06:30am 13.1 WSW 33 41 1020.2 - 0.0 - - - - - - -
17/06:05am 13.2 WSW 29 40 1019.9 - 0.0 - - - - - - -
17/06:00am 13.4 WSW 29 38 1020.2 - 0.0 - - - - - - -
17/05:35am 13.2 WSW 34 44 1019.6 - 0.0 - - - - - - -
17/05:30am 13.1 WSW 36 44 1019.1 - 0.0 - - - - - - -
17/05:02am 13.3 WSW 32 42 1019.1 - 0.0 - - - - - - -
17/05:00am 13.3 WSW 34 42 1019.2 - 0.0 - - - - - - -
17/04:30am 13.2 WSW 31 41 1018.2 - 0.0 - - - - - - -
17/04:00am 13.0 W 26 38 1018.5 - 0.0 - - - - - - -
17/03:44am 13.0 W 24 40 1018.3 - 0.0 - - - - - - -

Other Formats:

Comma delimited format used in spreadsheet applications
http://www.bom.gov.au/fwo/IDT60701/IDT60701.94893.axf

JavaScript Object Notation format (JSON) in row-major order
http://www.bom.gov.au/fwo/IDT60701/IDT60701.94893.json